This is the latest recevied weather packets stored in our database for station/object 9W2JBV-1. If no packets are shown the sender has not sent any weather packets the latest 10 day(s).
| Time | Temp. | Humidity | Pressure | Rain* | Wind** | Luminosity | Snow |
|---|---|---|---|---|---|---|---|
| 1777267353 | 33.33° C | 57% | 1015.8 hPa | - | - | - | - |
| 1777266153 | 33.89° C | 56% | 1016.1 hPa | - | - | - | - |
| 1777263752 | 34.44° C | 54% | 1016.4 hPa | - | - | - | - |
| 1777262552 | 33.89° C | 55% | 1016.9 hPa | - | - | - | - |
| 1777261352 | 33.89° C | 55% | 1017.1 hPa | - | - | - | - |
| 1777260152 | 33.89° C | 56% | 1017.2 hPa | - | - | - | - |
| 1777234950 | 32.22° C | 61% | 1015.1 hPa | - | - | - | - |
| 1777232550 | 32.22° C | 61% | 1015 hPa | - | - | - | - |
| 1777231350 | 32.22° C | 60% | 1015.1 hPa | - | - | - | - |
| 1777230150 | 32.22° C | 60% | 1015.3 hPa | - | - | - | - |
| 1777216953 | 32.78° C | 61% | 1017.2 hPa | - | - | - | - |
| 1777215753 | 32.22° C | 61% | 1017.2 hPa | - | - | - | - |
| 1777214553 | 32.22° C | 61% | 1017.2 hPa | - | - | - | - |
| 1777212153 | 32.78° C | 61% | 1017.2 hPa | - | - | - | - |
| 1777209752 | 32.78° C | 60% | 1016.9 hPa | - | - | - | - |
| 1777206152 | 32.78° C | 60% | 1016.3 hPa | - | - | - | - |
| 1777204952 | 32.78° C | 60% | 1016.1 hPa | - | - | - | - |
| 1777202552 | 32.78° C | 60% | 1015.4 hPa | - | - | - | - |
| 1777201355 | 32.78° C | 59% | 1015 hPa | - | - | - | - |
| 1777199400 | 32.78° C | 60% | 1014.4 hPa | - | - | - | - |
| 1777198951 | 32.78° C | 60% | 1014.4 hPa | - | - | - | - |
| 1777197751 | 32.78° C | 59% | 1014.3 hPa | - | - | - | - |
| 1777196551 | 32.78° C | 59% | 1014.2 hPa | - | - | - | - |
| 1777195350 | 32.78° C | 59% | 1014.1 hPa | - | - | - | - |
| 1777194150 | 32.78° C | 59% | 1014.1 hPa | - | - | - | - |
* Rain since midnight (hover to see other rain measurements)
** Current wind speed in m/s (hover to see current wind gust speed)